createdAt,value
2019-04-05T00:00:12.244Z,2.77
2019-04-05T00:01:12.227Z,2.77
2019-04-05T00:02:12.218Z,2.63
2019-04-05T00:03:12.192Z,2.67
2019-04-05T00:04:12.175Z,2.71
2019-04-05T00:05:12.157Z,2.69
2019-04-05T00:06:12.137Z,2.69
2019-04-05T00:07:12.121Z,2.78
2019-04-05T00:08:12.107Z,2.71
2019-04-05T00:09:12.092Z,2.74
2019-04-05T00:10:12.067Z,2.72
2019-04-05T00:11:12.061Z,2.67
2019-04-05T00:12:12.036Z,2.77
2019-04-05T00:13:12.022Z,2.78
2019-04-05T00:14:12.002Z,2.69
2019-04-05T00:15:15.525Z,2.74
2019-04-05T00:16:11.967Z,2.69
2019-04-05T00:17:11.949Z,2.72
2019-04-05T00:18:11.929Z,2.57
2019-04-05T00:19:11.913Z,2.77
2019-04-05T00:20:11.896Z,2.72
2019-04-05T00:21:11.877Z,2.67
2019-04-05T00:22:11.863Z,2.64
2019-04-05T00:23:11.861Z,2.71
2019-04-05T00:24:11.826Z,2.64
2019-04-05T00:25:11.810Z,2.78
2019-04-05T00:26:11.800Z,2.61
2019-04-05T00:27:11.774Z,2.75
2019-04-05T00:28:11.758Z,2.67
2019-04-05T00:29:11.742Z,2.74
2019-04-05T00:30:11.760Z,2.77
2019-04-05T00:31:11.699Z,2.72
2019-04-05T00:32:11.689Z,2.64
2019-04-05T00:33:11.671Z,2.61
2019-04-05T00:34:11.649Z,2.69
2019-04-05T00:35:11.639Z,2.77
2019-04-05T00:36:11.616Z,2.78
2019-04-05T00:37:11.600Z,2.78
2019-04-05T00:38:11.589Z,2.61
2019-04-05T00:39:11.566Z,2.72
2019-04-05T00:40:11.547Z,2.77
2019-04-05T00:41:11.532Z,2.61
2019-04-05T00:42:11.514Z,2.72
2019-04-05T00:43:11.532Z,2.75
2019-04-05T00:44:11.473Z,2.71
2019-04-05T00:45:11.468Z,2.72
2019-04-05T00:46:11.443Z,2.81
2019-04-05T00:47:11.423Z,2.63
2019-04-05T00:48:11.404Z,2.81
2019-04-05T00:49:11.388Z,2.64
2019-04-05T00:50:11.370Z,2.69
2019-04-05T00:51:11.354Z,2.64
2019-04-05T00:52:11.342Z,2.71
2019-04-05T00:53:11.322Z,2.67
2019-04-05T00:54:11.307Z,2.77
2019-04-05T00:55:11.286Z,2.72
2019-04-05T00:56:11.263Z,2.75
2019-04-05T00:57:11.253Z,2.53
2019-04-05T00:58:11.233Z,2.74
2019-04-05T00:59:11.223Z,2.60
2019-04-05T01:00:11.200Z,2.77
2019-04-05T01:01:11.187Z,2.71
2019-04-05T01:02:11.167Z,2.77
2019-04-05T01:03:13.134Z,2.61
2019-04-05T01:04:11.123Z,2.77
2019-04-05T01:05:11.127Z,2.72
2019-04-05T01:06:11.098Z,2.79
2019-04-05T01:07:11.078Z,2.66
2019-04-05T01:08:11.059Z,2.75
2019-04-05T01:09:11.050Z,2.74
2019-04-05T01:10:11.021Z,2.64
2019-04-05T01:11:11.014Z,2.67
2019-04-05T01:12:10.989Z,2.72
2019-04-05T01:13:10.971Z,2.69
2019-04-05T01:14:10.955Z,2.63
2019-04-05T01:15:10.941Z,2.59
2019-04-05T01:16:10.924Z,2.61
2019-04-05T01:17:10.904Z,2.63
2019-04-05T01:18:10.888Z,2.53
2019-04-05T01:19:10.866Z,2.66
2019-04-05T01:20:10.849Z,2.61
2019-04-05T01:21:10.835Z,2.54
2019-04-05T01:22:10.815Z,2.63
2019-04-05T01:23:10.795Z,2.66
2019-04-05T01:24:10.780Z,2.56
2019-04-05T01:25:10.761Z,2.57
2019-04-05T01:26:10.744Z,2.56
2019-04-05T01:27:10.730Z,2.53
2019-04-05T01:28:10.714Z,2.59
2019-04-05T01:29:10.694Z,2.53
2019-04-05T01:30:10.678Z,2.56
2019-04-05T01:31:10.662Z,2.53
2019-04-05T01:32:10.641Z,2.46
2019-04-05T01:33:10.621Z,2.49
2019-04-05T01:34:10.614Z,2.45
2019-04-05T01:35:10.593Z,2.45
2019-04-05T01:36:10.577Z,2.42
2019-04-05T01:37:10.555Z,2.39
2019-04-05T01:38:10.535Z,2.43
2019-04-05T01:39:10.527Z,2.30
2019-04-05T01:40:10.500Z,2.31
2019-04-05T01:41:10.493Z,2.28
2019-04-05T01:42:10.474Z,2.28
2019-04-05T01:43:10.452Z,2.18
2019-04-05T01:44:10.429Z,2.16
2019-04-05T01:45:10.418Z,2.17
2019-04-05T01:46:10.395Z,2.09
2019-04-05T01:47:10.383Z,2.16
2019-04-05T01:48:10.363Z,2.16
2019-04-05T01:49:10.345Z,2.09
2019-04-05T01:50:10.326Z,2.09
2019-04-05T01:51:10.329Z,2.09
2019-04-05T01:52:10.287Z,2.03
2019-04-05T01:53:10.272Z,2.10
2019-04-05T01:54:10.256Z,2.09
2019-04-05T01:55:10.238Z,2.09
2019-04-05T01:56:10.235Z,2.07
2019-04-05T01:57:10.204Z,2.09
2019-04-05T01:58:10.188Z,2.17
2019-04-05T01:59:10.174Z,2.12
2019-04-05T02:00:10.153Z,2.14
2019-04-05T02:01:10.136Z,2.12
2019-04-05T02:02:10.138Z,2.18
2019-04-05T02:03:10.096Z,2.21
2019-04-05T02:04:10.079Z,2.21
2019-04-05T02:05:10.054Z,2.24
2019-04-05T02:06:10.049Z,2.21
2019-04-05T02:07:10.027Z,2.24
2019-04-05T02:08:10.009Z,2.24
2019-04-05T02:09:09.993Z,2.25
2019-04-05T02:10:09.975Z,2.20
2019-04-05T02:11:09.957Z,2.30
2019-04-05T02:12:09.939Z,2.27
2019-04-05T02:13:09.929Z,2.21
2019-04-05T02:14:09.907Z,2.24
2019-04-05T02:15:09.883Z,2.14
2019-04-05T02:16:09.864Z,2.14
2019-04-05T02:17:09.914Z,2.12
2019-04-05T02:18:09.834Z,2.14
2019-04-05T02:19:09.831Z,2.07
2019-04-05T02:20:09.792Z,2.05
2019-04-05T02:21:09.783Z,2.05
2019-04-05T02:22:09.763Z,2.00
2019-04-05T02:23:09.747Z,1.95
2019-04-05T02:24:09.736Z,1.90
2019-04-05T02:25:09.712Z,1.80
2019-04-05T02:26:09.704Z,1.83
2019-04-05T02:27:09.672Z,1.87
2019-04-05T02:28:09.653Z,1.73
2019-04-05T02:29:09.633Z,1.86
2019-04-05T02:30:09.637Z,1.84
2019-04-05T02:31:09.610Z,1.80
2019-04-05T02:32:09.590Z,1.83
2019-04-05T02:33:09.571Z,1.77
2019-04-05T02:34:09.547Z,1.69
2019-04-05T02:35:09.537Z,1.83
2019-04-05T02:36:09.514Z,1.77
2019-04-05T02:37:09.502Z,1.79
2019-04-05T02:38:09.478Z,1.76
2019-04-05T02:39:09.458Z,1.79
2019-04-05T02:40:09.440Z,1.76
2019-04-05T02:41:09.424Z,1.66
2019-04-05T02:42:09.411Z,1.68
2019-04-05T02:43:09.387Z,1.72
2019-04-05T02:44:09.380Z,1.66
2019-04-05T02:45:09.356Z,1.52
2019-04-05T02:46:22.595Z,1.54
2019-04-05T02:47:09.315Z,1.54
2019-04-05T02:48:09.300Z,1.58
2019-04-05T02:49:09.290Z,1.52
2019-04-05T02:50:09.267Z,1.54
2019-04-05T02:51:09.253Z,1.55
2019-04-05T02:52:09.240Z,1.63
2019-04-05T02:53:09.212Z,1.60
2019-04-05T02:54:09.192Z,1.69
2019-04-05T02:55:09.176Z,1.58
2019-04-05T02:56:09.168Z,1.62
2019-04-05T02:57:09.137Z,1.70
2019-04-05T02:58:09.116Z,1.63
2019-04-05T02:59:09.099Z,1.62
2019-04-05T03:00:09.082Z,1.68
2019-04-05T03:01:09.071Z,1.72
2019-04-05T03:02:09.044Z,1.73
2019-04-05T03:03:09.106Z,1.72
2019-04-05T03:04:09.014Z,1.72
2019-04-05T03:05:09.007Z,1.76
2019-04-05T03:06:08.978Z,1.73
2019-04-05T03:07:08.960Z,1.69
2019-04-05T03:08:08.944Z,1.73
2019-04-05T03:09:08.922Z,1.79
2019-04-05T03:10:08.912Z,1.77
2019-04-05T03:11:08.886Z,1.77
2019-04-05T03:12:08.875Z,1.70
2019-04-05T03:13:08.853Z,1.72
2019-04-05T03:14:08.840Z,1.86
2019-04-05T03:15:08.817Z,1.77
2019-04-05T03:16:08.802Z,1.86
2019-04-05T03:17:08.780Z,1.81
2019-04-05T03:18:08.767Z,1.80
2019-04-05T03:19:08.751Z,1.80
2019-04-05T03:20:08.732Z,1.88
2019-04-05T03:21:08.706Z,1.80
2019-04-05T03:22:08.689Z,1.86
2019-04-05T03:23:08.677Z,1.83
2019-04-05T03:24:08.660Z,1.81
2019-04-05T03:25:08.643Z,1.83
2019-04-05T03:26:08.621Z,1.83
2019-04-05T03:27:08.599Z,1.77
2019-04-05T03:28:08.588Z,1.83
2019-04-05T03:29:08.573Z,1.87
2019-04-05T03:30:08.567Z,1.86
2019-04-05T03:31:08.535Z,1.87
2019-04-05T03:32:08.533Z,1.79
2019-04-05T03:33:08.509Z,1.87
2019-04-05T03:34:08.472Z,1.87
2019-04-05T03:35:08.470Z,1.77
2019-04-05T03:36:08.442Z,1.80
2019-04-05T03:37:08.427Z,1.77
2019-04-05T03:38:08.403Z,1.83
2019-04-05T03:39:08.388Z,1.70
2019-04-05T03:40:08.373Z,1.79
2019-04-05T03:41:08.366Z,1.72
2019-04-05T03:42:08.334Z,1.86
2019-04-05T03:43:08.314Z,1.76
2019-04-05T03:44:08.298Z,1.86
2019-04-05T03:45:08.286Z,1.80
2019-04-05T03:46:08.267Z,1.73
2019-04-05T03:47:08.255Z,1.69
2019-04-05T03:48:08.222Z,1.73
2019-04-05T03:49:08.223Z,1.73
2019-04-05T03:50:08.188Z,1.65
2019-04-05T03:51:08.174Z,1.73
2019-04-05T03:52:08.150Z,1.69
2019-04-05T03:53:08.135Z,1.73
2019-04-05T03:54:08.118Z,1.70
2019-04-05T03:55:08.100Z,1.80
2019-04-05T03:56:08.094Z,1.68
2019-04-05T03:57:08.066Z,1.84
2019-04-05T03:58:08.052Z,1.68
2019-04-05T03:59:08.031Z,1.73
2019-04-05T04:00:08.013Z,1.63
2019-04-05T04:01:07.997Z,1.59
2019-04-05T04:02:07.975Z,1.52
2019-04-05T04:03:07.958Z,1.59
2019-04-05T04:04:07.947Z,1.58
2019-04-05T04:05:07.922Z,1.58
2019-04-05T04:06:07.906Z,1.52
2019-04-05T04:07:07.885Z,1.55
2019-04-05T04:08:07.877Z,1.48
2019-04-05T04:09:07.853Z,1.37
2019-04-05T04:10:07.834Z,1.37
2019-04-05T04:11:07.823Z,1.36
2019-04-05T04:12:07.798Z,1.23
2019-04-05T04:13:07.781Z,1.23
2019-04-05T04:14:07.759Z,1.16
2019-04-05T04:15:07.759Z,1.15
2019-04-05T04:16:07.724Z,0.97
2019-04-05T04:17:12.690Z,1.12
2019-04-05T04:18:07.687Z,1.02
2019-04-05T04:19:07.763Z,1.06
2019-04-05T04:20:07.654Z,0.96
2019-04-05T04:21:07.638Z,0.93
2019-04-05T04:22:07.618Z,0.93
2019-04-05T04:23:07.600Z,0.88
2019-04-05T04:24:07.586Z,0.88
2019-04-05T04:25:07.564Z,0.78
2019-04-05T04:26:07.537Z,0.72
2019-04-05T04:27:07.524Z,0.75
2019-04-05T04:28:07.511Z,0.80
2019-04-05T04:29:07.488Z,0.76
2019-04-05T04:30:07.471Z,0.76
2019-04-05T04:31:07.454Z,0.78
2019-04-05T04:32:07.435Z,0.90
2019-04-05T04:33:07.436Z,0.88
2019-04-05T04:34:07.402Z,0.90
2019-04-05T04:35:07.380Z,0.88
2019-04-05T04:36:07.361Z,0.91
2019-04-05T04:37:07.347Z,0.97
2019-04-05T04:38:07.319Z,1.02
2019-04-05T04:39:07.310Z,1.05
2019-04-05T04:40:07.294Z,1.18
2019-04-05T04:41:07.269Z,1.16
2019-04-05T04:42:07.255Z,1.12
2019-04-05T04:43:07.253Z,1.26
2019-04-05T04:44:07.220Z,1.22
2019-04-05T04:45:12.499Z,1.36
2019-04-05T04:46:07.174Z,1.36
2019-04-05T04:47:07.158Z,1.47
2019-04-05T04:48:07.142Z,1.33
2019-04-05T04:49:07.126Z,1.36
2019-04-05T04:50:07.118Z,1.44
2019-04-05T04:51:07.089Z,1.45
2019-04-05T04:52:07.069Z,1.40
2019-04-05T04:53:07.050Z,1.37
2019-04-05T04:54:07.035Z,1.44
2019-04-05T04:55:07.014Z,1.20
2019-04-05T04:56:06.992Z,1.36
2019-04-05T04:57:06.985Z,1.30
2019-04-05T04:58:06.958Z,1.36
2019-04-05T04:59:06.951Z,1.37
2019-04-05T05:00:06.932Z,1.34
2019-04-05T05:01:06.904Z,1.40
2019-04-05T05:02:06.895Z,1.33
2019-04-05T05:03:06.864Z,1.44
2019-04-05T05:04:08.315Z,1.42
2019-04-05T05:05:06.838Z,1.47
2019-04-05T05:06:06.824Z,1.45
2019-04-05T05:07:06.796Z,1.52
2019-04-05T05:08:06.777Z,1.50
2019-04-05T05:09:06.760Z,1.51
2019-04-05T05:10:06.746Z,1.54
2019-04-05T05:11:14.368Z,1.52
2019-04-05T05:12:06.719Z,1.65
2019-04-05T05:13:06.683Z,1.62
2019-04-05T05:14:06.675Z,1.59
2019-04-05T05:15:06.648Z,1.73
2019-04-05T05:16:06.631Z,1.72
2019-04-05T05:17:06.607Z,1.66
2019-04-05T05:18:06.595Z,1.66
2019-04-05T05:19:06.583Z,1.73
2019-04-05T05:20:06.559Z,1.77
2019-04-05T05:21:06.547Z,1.83
2019-04-05T05:22:06.523Z,1.77
2019-04-05T05:23:06.507Z,1.88
2019-04-05T05:24:06.483Z,1.80
2019-04-05T05:25:06.474Z,1.79
2019-04-05T05:26:06.464Z,1.81
2019-04-05T05:27:06.461Z,1.83
2019-04-05T05:28:06.416Z,1.84
2019-04-05T05:29:06.399Z,1.91
2019-04-05T05:30:06.383Z,1.84
2019-04-05T05:31:06.377Z,1.91
2019-04-05T05:32:09.492Z,1.90
2019-04-05T05:33:06.376Z,2.06
2019-04-05T05:34:06.309Z,2.02
2019-04-05T05:35:06.291Z,2.00
2019-04-05T05:36:06.269Z,2.05
2019-04-05T05:37:06.249Z,1.99
2019-04-05T05:38:06.241Z,2.00
2019-04-05T05:39:06.215Z,1.90
2019-04-05T05:40:06.198Z,1.98
2019-04-05T05:41:06.184Z,2.05
2019-04-05T05:42:06.166Z,2.03
2019-04-05T05:43:06.148Z,2.02
2019-04-05T05:44:06.134Z,1.98
2019-04-05T05:45:06.122Z,2.03
2019-04-05T05:46:06.094Z,2.02
2019-04-05T05:47:06.087Z,2.00
2019-04-05T05:48:06.057Z,2.09
2019-04-05T05:49:06.040Z,1.98
2019-04-05T05:50:06.024Z,2.00
2019-04-05T05:51:06.026Z,2.09
2019-04-05T05:52:06.075Z,1.91
2019-04-05T05:53:05.968Z,2.00
2019-04-05T05:54:05.954Z,2.05
2019-04-05T05:55:05.932Z,2.05
2019-04-05T05:56:05.916Z,2.09
2019-04-05T05:57:05.894Z,2.09
2019-04-05T05:58:05.909Z,2.24
2019-04-05T05:59:05.865Z,2.28
2019-04-05T06:00:05.846Z,2.27
2019-04-05T06:01:05.825Z,2.35
2019-04-05T06:02:07.305Z,2.36
2019-04-05T06:03:06.392Z,2.48
2019-04-05T06:04:05.770Z,2.43
2019-04-05T06:05:05.750Z,2.52
2019-04-05T06:06:05.741Z,2.52
2019-04-05T06:07:05.716Z,2.57
2019-04-05T06:08:05.703Z,2.61
2019-04-05T06:09:05.682Z,2.63
2019-04-05T06:10:05.669Z,2.72
2019-04-05T06:11:05.646Z,2.64
2019-04-05T06:12:05.627Z,2.72
2019-04-05T06:13:07.222Z,2.59
2019-04-05T06:14:05.599Z,2.63
2019-04-05T06:15:05.579Z,2.64
2019-04-05T06:16:05.564Z,2.74
2019-04-05T06:17:05.546Z,2.75
2019-04-05T06:18:05.523Z,2.64
2019-04-05T06:19:05.510Z,2.72
2019-04-05T06:20:05.491Z,2.78
2019-04-05T06:21:05.470Z,2.85
2019-04-05T06:22:05.449Z,2.87
2019-04-05T06:23:05.431Z,2.82
2019-04-05T06:24:05.483Z,2.90
2019-04-05T06:25:05.401Z,2.90
2019-04-05T06:26:05.381Z,2.92
2019-04-05T06:27:05.367Z,2.96
2019-04-05T06:28:05.344Z,3.00
2019-04-05T06:29:05.332Z,2.96
2019-04-05T06:30:05.315Z,2.95
2019-04-05T06:31:05.294Z,3.03
2019-04-05T06:32:05.284Z,2.95
2019-04-05T06:33:05.272Z,3.10
2019-04-05T06:34:05.241Z,3.02
2019-04-05T06:35:05.221Z,3.02
2019-04-05T06:36:05.208Z,3.13
2019-04-05T06:37:05.192Z,3.06
2019-04-05T06:38:05.172Z,3.14
2019-04-05T06:39:05.159Z,3.14
2019-04-05T06:40:05.136Z,3.14
2019-04-05T06:41:05.137Z,3.20
2019-04-05T06:42:05.107Z,3.18
2019-04-05T06:43:06.767Z,3.08
2019-04-05T06:44:05.072Z,3.02
2019-04-05T06:45:05.115Z,2.96
2019-04-05T06:46:05.108Z,2.96
2019-04-05T06:47:05.019Z,3.02
2019-04-05T06:48:18.063Z,3.05
2019-04-05T06:49:04.981Z,3.03
2019-04-05T06:50:04.965Z,3.02
2019-04-05T06:51:04.943Z,3.08
2019-04-05T06:52:04.926Z,3.05
2019-04-05T06:53:04.916Z,3.08
2019-04-05T06:54:04.894Z,3.17
2019-04-05T06:55:04.874Z,3.24
2019-04-05T06:56:04.864Z,3.24
2019-04-05T06:57:04.846Z,3.33
2019-04-05T06:58:04.831Z,3.36
2019-04-05T06:59:04.812Z,3.39
2019-04-05T07:00:04.793Z,3.58
2019-04-05T07:01:04.779Z,3.57
2019-04-05T07:02:04.764Z,3.62
2019-04-05T07:03:04.754Z,3.66
2019-04-05T07:04:04.727Z,3.79
2019-04-05T07:05:04.705Z,3.86
2019-04-05T07:06:04.696Z,4.00
2019-04-05T07:07:04.682Z,4.02
2019-04-05T07:08:04.651Z,4.30
2019-04-05T07:09:04.636Z,4.32
2019-04-05T07:10:04.620Z,4.48
2019-04-05T07:11:04.607Z,4.59
2019-04-05T07:12:04.585Z,4.67
2019-04-05T07:13:04.659Z,4.86
2019-04-05T07:14:04.560Z,5.04
2019-04-05T07:15:04.540Z,5.24
2019-04-05T07:16:04.531Z,5.39
2019-04-05T07:17:04.501Z,5.45
2019-04-05T07:18:04.486Z,5.57
2019-04-05T07:19:04.466Z,5.68
2019-04-05T07:20:04.457Z,5.85
2019-04-05T07:21:04.438Z,5.86
2019-04-05T07:22:04.432Z,5.90
2019-04-05T07:23:04.398Z,5.94
2019-04-05T07:24:04.385Z,5.93
2019-04-05T07:25:04.376Z,5.93
2019-04-05T07:26:04.362Z,5.99
2019-04-05T07:27:04.342Z,6.09
2019-04-05T07:28:04.321Z,6.12
2019-04-05T07:29:04.307Z,5.99
2019-04-05T07:30:04.291Z,5.96
2019-04-05T07:31:04.275Z,5.83
2019-04-05T07:32:04.262Z,5.74
2019-04-05T07:33:04.242Z,5.64
2019-04-05T07:34:04.228Z,5.54
2019-04-05T07:35:04.213Z,5.56
2019-04-05T07:36:04.198Z,5.54
2019-04-05T07:37:04.181Z,5.54
2019-04-05T07:38:04.164Z,5.40
2019-04-05T07:39:04.147Z,5.27
2019-04-05T07:40:04.130Z,5.20
2019-04-05T07:41:04.115Z,5.15
2019-04-05T07:42:04.101Z,5.09
2019-04-05T07:43:04.093Z,5.17
2019-04-05T07:44:04.065Z,5.22
2019-04-05T07:45:04.050Z,5.24
2019-04-05T07:46:04.034Z,5.24
2019-04-05T07:47:04.014Z,5.24
2019-04-05T07:48:04.004Z,5.33
2019-04-05T07:49:03.985Z,5.35
2019-04-05T07:50:03.973Z,5.40
2019-04-05T07:51:03.954Z,5.46
2019-04-05T07:52:03.938Z,5.56
2019-04-05T07:53:03.920Z,5.54
2019-04-05T07:54:03.907Z,5.61
2019-04-05T07:55:03.885Z,5.78
2019-04-05T07:56:03.877Z,5.93
2019-04-05T07:57:03.860Z,6.06
2019-04-05T07:58:03.842Z,6.21
2019-04-05T07:59:03.830Z,6.17
2019-04-05T08:00:03.826Z,6.09
2019-04-05T08:01:03.795Z,6.12
2019-04-05T08:02:03.847Z,6.17
2019-04-05T08:03:03.764Z,6.08
2019-04-05T08:04:03.749Z,6.11
2019-04-05T08:05:06.247Z,6.04
2019-04-05T08:06:03.722Z,6.08
2019-04-05T08:07:03.702Z,6.06
2019-04-05T08:08:03.683Z,6.31
2019-04-05T08:09:03.678Z,6.36
2019-04-05T08:10:03.682Z,6.27
2019-04-05T08:11:03.670Z,5.96
2019-04-05T08:12:03.625Z,5.79
2019-04-05T08:13:03.606Z,5.81
2019-04-05T08:14:03.588Z,5.58
2019-04-05T08:15:03.783Z,5.65
2019-04-05T08:16:03.560Z,5.71
2019-04-05T08:17:03.539Z,5.81
2019-04-05T08:18:03.536Z,5.90
2019-04-05T08:19:03.515Z,6.06
2019-04-05T08:20:03.494Z,5.96
2019-04-05T08:21:03.480Z,5.99
2019-04-05T08:22:03.464Z,5.90
2019-04-05T08:23:03.453Z,5.94
2019-04-05T08:24:03.435Z,5.94
2019-04-05T08:25:03.433Z,5.96
2019-04-05T08:26:58.440Z,6.06
2019-04-05T08:27:58.400Z,6.09
2019-04-05T08:29:53.261Z,6.15
2019-04-05T08:30:53.225Z,6.41
2019-04-05T08:32:48.081Z,6.66
2019-04-05T08:33:48.050Z,6.87
2019-04-05T08:35:42.942Z,7.57
2019-04-05T08:36:42.899Z,8.01
2019-04-05T08:38:39.837Z,8.43
2019-04-05T08:39:37.713Z,8.84
2019-04-05T08:41:32.571Z,9.17
2019-04-05T08:42:32.548Z,9.46
2019-04-05T08:44:27.931Z,9.76
2019-04-05T08:45:27.878Z,9.75
2019-04-05T08:47:23.710Z,9.50
2019-04-05T08:48:23.693Z,9.42
2019-04-05T08:50:19.050Z,9.83
2019-04-05T08:51:19.009Z,9.91
2019-04-05T08:53:13.890Z,10.23
2019-04-05T08:54:13.860Z,10.26
2019-04-05T08:56:08.732Z,10.61
2019-04-05T08:57:08.705Z,10.79
2019-04-05T08:59:04.370Z,10.85
2019-04-05T09:00:04.342Z,10.84
2019-04-05T09:02:18.230Z,10.81
2019-04-05T09:03:18.179Z,10.70
2019-04-05T09:05:12.716Z,10.84
2019-04-05T09:06:12.686Z,10.74
2019-04-05T09:08:08.543Z,11.04
2019-04-05T09:09:09.144Z,10.44
2019-04-05T09:11:03.403Z,10.42
2019-04-05T09:12:03.350Z,10.40
2019-04-05T09:13:58.212Z,10.07
2019-04-05T09:14:58.180Z,10.17
2019-04-05T09:16:53.576Z,10.42
2019-04-05T09:17:53.523Z,10.47
2019-04-05T09:19:49.363Z,10.70
2019-04-05T09:20:49.326Z,10.45
2019-04-05T09:22:44.209Z,9.99
2019-04-05T09:23:44.156Z,9.86
2019-04-05T09:25:39.252Z,9.89
2019-04-05T09:26:39.213Z,9.83
2019-04-05T09:28:38.759Z,9.81
2019-04-05T09:29:38.715Z,10.17
2019-04-05T09:31:33.588Z,10.11
2019-04-05T09:32:36.398Z,9.93
2019-04-05T09:34:28.426Z,9.83
2019-04-05T09:35:28.379Z,9.89
2019-04-05T09:37:25.369Z,9.93
2019-04-05T09:38:24.716Z,9.72
2019-04-05T09:40:31.389Z,9.40
2019-04-05T09:41:31.330Z,9.39
2019-04-05T09:43:27.167Z,9.36
2019-04-05T09:44:27.144Z,9.40
2019-04-05T09:46:22.911Z,9.56
2019-04-05T09:47:22.878Z,9.61
2019-04-05T09:49:17.745Z,9.74
2019-04-05T09:50:17.709Z,9.78
2019-04-05T09:52:12.597Z,9.81
2019-04-05T09:53:12.543Z,9.89
2019-04-05T09:55:08.391Z,10.09
2019-04-05T09:56:08.369Z,10.20
2019-04-05T09:58:04.239Z,10.53
2019-04-05T09:59:04.201Z,10.73
2019-04-05T10:00:59.064Z,11.22
2019-04-05T10:01:59.034Z,11.64
2019-04-05T10:03:54.880Z,11.91
2019-04-05T10:04:54.850Z,12.16
2019-04-05T10:06:49.461Z,11.94
2019-04-05T10:07:55.491Z,11.49
2019-04-05T10:09:44.198Z,11.25
2019-04-05T10:10:44.200Z,11.37
2019-04-05T10:12:39.022Z,11.46
2019-04-05T10:13:38.992Z,11.65
2019-04-05T10:15:34.347Z,11.85
2019-04-05T10:16:34.317Z,12.13
2019-04-05T10:18:29.182Z,12.54
2019-04-05T10:19:29.156Z,12.68
2019-04-05T10:21:23.161Z,12.87
2019-04-05T10:22:23.124Z,12.85
2019-04-05T10:24:17.988Z,12.49
2019-04-05T10:25:17.969Z,12.57
2019-04-05T10:27:12.827Z,13.03
2019-04-05T10:28:12.830Z,13.11
2019-04-05T10:30:07.691Z,13.26
2019-04-05T10:31:07.663Z,13.44
2019-04-05T10:33:02.524Z,13.49
2019-04-05T10:34:02.489Z,13.63
2019-04-05T10:35:58.841Z,13.87
2019-04-05T10:36:58.818Z,13.59
2019-04-05T10:38:54.537Z,13.23
2019-04-05T10:39:54.500Z,13.29
2019-04-05T10:42:02.305Z,13.10
2019-04-05T10:42:49.184Z,13.30
2019-04-05T10:44:44.070Z,13.23
2019-04-05T10:45:44.019Z,13.15
2019-04-05T10:47:40.816Z,13.28
2019-04-05T10:48:39.362Z,13.51
2019-04-05T10:50:34.247Z,13.51
2019-04-05T10:51:34.198Z,13.22
2019-04-05T10:53:28.613Z,12.90
2019-04-05T10:54:28.587Z,12.86
2019-04-05T10:56:24.462Z,12.35
2019-04-05T10:57:24.431Z,12.19
2019-04-05T10:59:19.303Z,12.37
2019-04-05T11:00:19.263Z,12.59
2019-04-05T11:02:15.741Z,12.65
2019-04-05T11:03:14.109Z,12.79
2019-04-05T11:05:08.987Z,12.95
2019-04-05T11:06:08.958Z,13.04
2019-04-05T11:08:03.896Z,13.14
2019-04-05T11:09:03.801Z,13.26
2019-04-05T11:10:58.659Z,13.42
2019-04-05T11:11:58.631Z,13.38
2019-04-05T11:13:53.808Z,13.42
2019-04-05T11:14:53.784Z,13.33
2019-04-05T11:16:58.205Z,13.49
2019-04-05T11:17:49.643Z,13.46
2019-04-05T11:20:14.939Z,13.52
2019-04-05T11:21:03.481Z,13.64
2019-04-05T11:23:01.414Z,13.79
2019-04-05T11:24:01.385Z,13.77
2019-04-05T11:25:57.247Z,13.85
2019-04-05T11:26:57.208Z,14.06
2019-04-05T11:28:53.052Z,14.45
2019-04-05T11:29:53.029Z,14.60
2019-04-05T11:31:56.932Z,14.96
2019-04-05T11:32:48.375Z,15.17
2019-04-05T11:34:44.264Z,15.19
2019-04-05T11:35:44.253Z,15.16
2019-04-05T11:37:39.804Z,14.98
2019-04-05T11:38:39.572Z,14.65
2019-04-05T11:40:34.609Z,14.78
2019-04-05T11:41:34.419Z,14.68
2019-04-05T11:43:31.373Z,14.50
2019-04-05T11:44:30.741Z,14.28
2019-04-05T11:46:28.022Z,14.62
2019-04-05T11:47:27.991Z,14.70
2019-04-05T11:49:22.883Z,14.94
2019-04-05T11:50:33.835Z,15.03
2019-04-05T11:52:19.286Z,14.94
2019-04-05T11:53:21.755Z,14.80
2019-04-05T11:55:18.938Z,14.81
2019-04-05T11:56:20.052Z,14.83
2019-04-05T11:58:13.284Z,14.83
2019-04-05T11:59:13.355Z,14.98
2019-04-05T12:01:08.631Z,15.17
2019-04-05T12:02:08.601Z,15.43
2019-04-05T12:04:03.473Z,15.92
2019-04-05T12:05:03.436Z,16.33
2019-04-05T12:06:59.295Z,17.07
2019-04-05T12:08:01.861Z,17.33
2019-04-05T12:09:54.626Z,17.55
2019-04-05T12:10:54.609Z,17.68
2019-04-05T12:12:49.080Z,17.59
2019-04-05T12:13:49.032Z,17.55
2019-04-05T12:15:44.016Z,17.23
2019-04-05T12:16:43.868Z,16.76
2019-04-05T12:18:38.779Z,16.04
2019-04-05T12:19:38.731Z,15.71
2019-04-05T12:21:34.817Z,15.54
2019-04-05T12:22:34.940Z,15.43
2019-04-05T12:24:32.427Z,15.64
2019-04-05T12:25:28.944Z,15.69
2019-04-05T12:27:23.920Z,15.82
2019-04-05T12:28:23.900Z,15.78
2019-04-05T12:30:18.795Z,16.00
2019-04-05T12:31:18.743Z,16.00
2019-04-05T12:33:17.161Z,16.45
2019-04-05T12:34:15.109Z,16.91
2019-04-05T12:36:10.977Z,17.18
2019-04-05T12:37:10.957Z,17.34
2019-04-05T12:39:08.039Z,17.28
2019-04-05T12:40:09.553Z,17.22
2019-04-05T12:42:01.204Z,17.51
2019-04-05T12:43:01.150Z,17.72
2019-04-05T12:44:56.526Z,18.26
2019-04-05T12:45:56.553Z,18.57
2019-04-05T12:47:51.371Z,18.75
2019-04-05T12:48:51.343Z,18.51
2019-04-05T12:51:05.821Z,17.82
2019-04-05T12:52:05.193Z,17.77
2019-04-05T12:53:59.784Z,17.46
2019-04-05T12:54:59.758Z,17.33
2019-04-05T12:56:57.886Z,16.98
2019-04-05T12:57:56.199Z,16.81
2019-04-05T13:00:08.226Z,16.50
2019-04-05T13:01:08.672Z,16.39
2019-04-05T13:03:03.585Z,16.04
2019-04-05T13:04:03.561Z,16.01
2019-04-05T13:05:58.231Z,15.94
2019-04-05T13:06:58.198Z,15.68
2019-04-05T13:08:54.464Z,15.51
2019-04-05T13:09:54.945Z,15.65
2019-04-05T13:11:49.563Z,15.41
2019-04-05T13:12:51.758Z,15.39
2019-04-05T13:14:44.402Z,15.53
2019-04-05T13:15:44.417Z,15.57
2019-04-05T13:17:39.282Z,15.80
2019-04-05T13:18:39.231Z,15.76
2019-04-05T13:20:34.598Z,15.69
2019-04-05T13:21:34.608Z,15.59
2019-04-05T13:23:29.460Z,15.17
2019-04-05T13:24:29.412Z,15.19
2019-04-05T13:26:26.430Z,15.10
2019-04-05T13:27:24.277Z,15.03
2019-04-05T13:29:19.674Z,14.96
2019-04-05T13:30:19.281Z,14.83
2019-04-05T13:32:17.164Z,14.84
2019-04-05T13:33:15.464Z,14.86
2019-04-05T13:35:10.827Z,15.06
2019-04-05T13:36:10.806Z,15.20
2019-04-05T13:38:06.677Z,15.49
2019-04-05T13:39:06.640Z,15.62
2019-04-05T13:41:02.120Z,16.02
2019-04-05T13:42:02.347Z,16.15
2019-04-05T13:43:56.350Z,16.45
2019-04-05T13:44:56.325Z,16.68
2019-04-05T13:46:51.196Z,16.91
2019-04-05T13:47:51.158Z,16.93
2019-04-05T13:49:46.550Z,17.01
2019-04-05T13:50:46.518Z,17.07
2019-04-05T13:52:42.080Z,17.19
2019-04-05T13:53:41.363Z,17.34
2019-04-05T13:55:38.500Z,17.36
2019-04-05T13:56:36.709Z,17.26
2019-04-05T13:58:51.602Z,17.59
2019-04-05T13:59:51.540Z,17.68
2019-04-05T14:01:46.419Z,18.25
2019-04-05T14:02:46.374Z,18.47
2019-04-05T14:04:41.253Z,18.78
2019-04-05T14:05:41.238Z,18.82
2019-04-05T14:07:36.110Z,18.80
2019-04-05T14:08:36.326Z,18.88
2019-04-05T14:10:31.337Z,19.16
2019-04-05T14:11:31.285Z,19.31
2019-04-05T14:13:26.760Z,19.71
2019-04-05T14:14:28.383Z,19.80
2019-04-05T14:16:22.117Z,20.02
2019-04-05T14:17:22.090Z,20.14
2019-04-05T14:19:19.121Z,20.35
2019-04-05T14:20:19.655Z,20.41
2019-04-05T14:22:12.867Z,20.41
2019-04-05T14:23:12.810Z,20.57
2019-04-05T14:25:08.663Z,20.31
2019-04-05T14:26:08.635Z,20.17
2019-04-05T14:28:04.718Z,19.76
2019-04-05T14:29:04.155Z,19.59
2019-04-05T14:30:58.363Z,19.23
2019-04-05T14:32:01.066Z,19.08
2019-04-05T14:33:54.813Z,18.47
2019-04-05T14:34:54.775Z,18.42
2019-04-05T14:36:48.090Z,17.97
2019-04-05T14:37:48.063Z,17.75
2019-04-05T14:39:42.982Z,17.86
2019-04-05T14:40:42.913Z,17.93
2019-04-05T14:42:37.593Z,18.05
2019-04-05T14:43:37.907Z,18.14
2019-04-05T14:45:32.282Z,18.42
2019-04-05T14:46:32.240Z,18.41
2019-04-05T14:48:28.048Z,18.58
2019-04-05T14:49:30.401Z,18.73
2019-04-05T14:51:21.961Z,18.92
2019-04-05T14:52:21.932Z,18.87
2019-04-05T14:54:18.292Z,18.82
2019-04-05T14:55:18.266Z,18.51
2019-04-05T14:57:14.137Z,18.07
2019-04-05T14:58:14.115Z,18.00
2019-04-05T15:00:08.978Z,18.05
2019-04-05T15:01:10.497Z,18.08
2019-04-05T15:03:03.870Z,18.32
2019-04-05T15:04:03.817Z,18.23
2019-04-05T15:05:59.858Z,17.99
2019-04-05T15:07:01.305Z,18.03
2019-04-05T15:08:55.697Z,18.12
2019-04-05T15:09:55.782Z,17.96
2019-04-05T15:11:50.536Z,17.51
2019-04-05T15:12:50.509Z,17.52
2019-04-05T15:14:45.376Z,17.44
2019-04-05T15:15:45.340Z,17.43
2019-04-05T15:17:48.074Z,17.31
2019-04-05T15:18:40.191Z,17.34
2019-04-05T15:20:35.530Z,17.37
2019-04-05T15:21:34.984Z,17.38
2019-04-05T15:23:29.770Z,17.30